sensor_id;sensor_type;location;lat;lon;timestamp;P1;durP1;ratioP1;P2;durP2;ratioP2
57231;SDS011;43488;46.934;8.276;2023-04-29T00:01:30;764.30;;;308.42;;
57231;SDS011;43488;46.934;8.276;2023-04-29T00:03:57;755.80;;;298.92;;
57231;SDS011;43488;46.934;8.276;2023-04-29T00:06:25;765.97;;;313.20;;
57231;SDS011;43488;46.934;8.276;2023-04-29T00:08:52;751.10;;;295.60;;
57231;SDS011;43488;46.934;8.276;2023-04-29T00:11:19;763.33;;;309.45;;
57231;SDS011;43488;46.934;8.276;2023-04-29T00:13:46;761.22;;;307.38;;
57231;SDS011;43488;46.934;8.276;2023-04-29T00:16:13;758.40;;;307.17;;
57231;SDS011;43488;46.934;8.276;2023-04-29T00:18:41;753.63;;;294.52;;
57231;SDS011;43488;46.934;8.276;2023-04-29T00:21:08;748.90;;;287.35;;
57231;SDS011;43488;46.934;8.276;2023-04-29T00:23:36;763.97;;;310.85;;
57231;SDS011;43488;46.934;8.276;2023-04-29T00:26:04;768.35;;;314.35;;
57231;SDS011;43488;46.934;8.276;2023-04-29T00:28:31;763.53;;;299.77;;
57231;SDS011;43488;46.934;8.276;2023-04-29T00:30:59;748.70;;;284.65;;
57231;SDS011;43488;46.934;8.276;2023-04-29T00:33:26;762.28;;;294.88;;
57231;SDS011;43488;46.934;8.276;2023-04-29T00:35:53;760.17;;;296.63;;
57231;SDS011;43488;46.934;8.276;2023-04-29T00:38:21;747.83;;;280.05;;
57231;SDS011;43488;46.934;8.276;2023-04-29T00:40:49;758.10;;;288.77;;
57231;SDS011;43488;46.934;8.276;2023-04-29T00:43:17;766.33;;;299.85;;
57231;SDS011;43488;46.934;8.276;2023-04-29T00:45:44;775.40;;;312.48;;
57231;SDS011;43488;46.934;8.276;2023-04-29T00:48:12;770.35;;;299.00;;
57231;SDS011;43488;46.934;8.276;2023-04-29T00:50:42;765.15;;;293.58;;
57231;SDS011;43488;46.934;8.276;2023-04-29T00:53:10;781.60;;;308.80;;
57231;SDS011;43488;46.934;8.276;2023-04-29T00:55:38;778.38;;;307.83;;
57231;SDS011;43488;46.934;8.276;2023-04-29T00:58:09;768.08;;;289.17;;
57231;SDS011;43488;46.934;8.276;2023-04-29T01:00:37;770.97;;;294.67;;
57231;SDS011;43488;46.934;8.276;2023-04-29T01:03:07;772.28;;;293.63;;
57231;SDS011;43488;46.934;8.276;2023-04-29T01:05:35;769.00;;;294.38;;
57231;SDS011;43488;46.934;8.276;2023-04-29T01:10:43;785.55;;;313.05;;
57231;SDS011;43488;46.934;8.276;2023-04-29T01:16:01;783.73;;;306.77;;
57231;SDS011;43488;46.934;8.276;2023-04-29T01:18:35;778.33;;;303.15;;
57231;SDS011;43488;46.934;8.276;2023-04-29T01:21:07;772.70;;;295.77;;
57231;SDS011;43488;46.934;8.276;2023-04-29T01:23:34;786.60;;;312.08;;
57231;SDS011;43488;46.934;8.276;2023-04-29T01:26:02;782.53;;;309.77;;
57231;SDS011;43488;46.934;8.276;2023-04-29T01:31:43;784.20;;;314.23;;
57231;SDS011;43488;46.934;8.276;2023-04-29T01:43:57;766.97;;;289.80;;
57231;SDS011;43488;46.934;8.276;2023-04-29T01:46:27;767.55;;;286.65;;
57231;SDS011;43488;46.934;8.276;2023-04-29T01:48:57;788.60;;;319.33;;
57231;SDS011;43488;46.934;8.276;2023-04-29T01:51:25;784.22;;;306.15;;
57231;SDS011;43488;46.934;8.276;2023-04-29T01:53:55;785.75;;;310.70;;
57231;SDS011;43488;46.934;8.276;2023-04-29T01:56:23;777.83;;;302.92;;
57231;SDS011;43488;46.934;8.276;2023-04-29T01:58:50;783.60;;;313.40;;
57231;SDS011;43488;46.934;8.276;2023-04-29T02:01:17;787.97;;;311.85;;
57231;SDS011;43488;46.934;8.276;2023-04-29T02:03:45;789.90;;;319.60;;
57231;SDS011;43488;46.934;8.276;2023-04-29T02:06:12;782.88;;;302.00;;
57231;SDS011;43488;46.934;8.276;2023-04-29T02:08:40;784.92;;;311.52;;
57231;SDS011;43488;46.934;8.276;2023-04-29T02:11:08;780.65;;;299.17;;
57231;SDS011;43488;46.934;8.276;2023-04-29T02:13:35;773.58;;;295.98;;
57231;SDS011;43488;46.934;8.276;2023-04-29T02:16:09;780.28;;;302.90;;
57231;SDS011;43488;46.934;8.276;2023-04-29T02:18:38;787.05;;;314.50;;
57231;SDS011;43488;46.934;8.276;2023-04-29T02:21:06;775.15;;;297.23;;
57231;SDS011;43488;46.934;8.276;2023-04-29T02:23:34;773.67;;;296.10;;
57231;SDS011;43488;46.934;8.276;2023-04-29T02:26:02;782.05;;;307.48;;
57231;SDS011;43488;46.934;8.276;2023-04-29T02:28:35;779.65;;;303.65;;
57231;SDS011;43488;46.934;8.276;2023-04-29T02:31:03;781.95;;;304.77;;
57231;SDS011;43488;46.934;8.276;2023-04-29T02:33:31;778.97;;;300.73;;
57231;SDS011;43488;46.934;8.276;2023-04-29T02:36:00;781.92;;;304.45;;
57231;SDS011;43488;46.934;8.276;2023-04-29T02:38:28;777.63;;;302.75;;
57231;SDS011;43488;46.934;8.276;2023-04-29T02:40:56;776.97;;;302.15;;
57231;SDS011;43488;46.934;8.276;2023-04-29T02:43:24;772.97;;;295.23;;
57231;SDS011;43488;46.934;8.276;2023-04-29T02:45:51;782.17;;;309.92;;
57231;SDS011;43488;46.934;8.276;2023-04-29T02:48:19;770.92;;;292.90;;
57231;SDS011;43488;46.934;8.276;2023-04-29T02:50:46;777.63;;;301.35;;
57231;SDS011;43488;46.934;8.276;2023-04-29T02:53:14;775.72;;;300.75;;
57231;SDS011;43488;46.934;8.276;2023-04-29T02:55:42;773.83;;;294.80;;
57231;SDS011;43488;46.934;8.276;2023-04-29T02:58:09;778.85;;;308.25;;
57231;SDS011;43488;46.934;8.276;2023-04-29T03:00:36;777.63;;;300.80;;
57231;SDS011;43488;46.934;8.276;2023-04-29T03:03:05;774.08;;;296.35;;
57231;SDS011;43488;46.934;8.276;2023-04-29T03:05:33;777.85;;;304.55;;
57231;SDS011;43488;46.934;8.276;2023-04-29T03:08:00;771.20;;;295.65;;
57231;SDS011;43488;46.934;8.276;2023-04-29T03:10:30;779.13;;;304.33;;
57231;SDS011;43488;46.934;8.276;2023-04-29T03:12:58;771.88;;;301.98;;
57231;SDS011;43488;46.934;8.276;2023-04-29T03:15:25;777.08;;;305.83;;
57231;SDS011;43488;46.934;8.276;2023-04-29T03:17:52;765.60;;;290.98;;
57231;SDS011;43488;46.934;8.276;2023-04-29T03:20:20;784.38;;;311.73;;
57231;SDS011;43488;46.934;8.276;2023-04-29T03:22:47;777.40;;;303.58;;
57231;SDS011;43488;46.934;8.276;2023-04-29T03:25:15;768.78;;;287.58;;
57231;SDS011;43488;46.934;8.276;2023-04-29T03:27:42;766.33;;;296.45;;
57231;SDS011;43488;46.934;8.276;2023-04-29T03:30:10;781.05;;;307.23;;
57231;SDS011;43488;46.934;8.276;2023-04-29T03:32:37;782.95;;;314.58;;
57231;SDS011;43488;46.934;8.276;2023-04-29T03:35:04;763.63;;;288.55;;
57231;SDS011;43488;46.934;8.276;2023-04-29T03:37:32;783.35;;;319.10;;
57231;SDS011;43488;46.934;8.276;2023-04-29T03:39:59;773.45;;;299.30;;
57231;SDS011;43488;46.934;8.276;2023-04-29T03:42:27;769.08;;;299.25;;
57231;SDS011;43488;46.934;8.276;2023-04-29T03:44:54;779.05;;;308.45;;
57231;SDS011;43488;46.934;8.276;2023-04-29T03:47:21;783.92;;;319.58;;
57231;SDS011;43488;46.934;8.276;2023-04-29T03:49:49;764.97;;;293.30;;
57231;SDS011;43488;46.934;8.276;2023-04-29T03:52:17;776.30;;;306.20;;
57231;SDS011;43488;46.934;8.276;2023-04-29T03:54:44;770.95;;;299.98;;
57231;SDS011;43488;46.934;8.276;2023-04-29T03:57:11;770.90;;;300.70;;
57231;SDS011;43488;46.934;8.276;2023-04-29T03:59:38;763.75;;;291.98;;
57231;SDS011;43488;46.934;8.276;2023-04-29T04:02:06;732.70;;;304.98;;
57231;SDS011;43488;46.934;8.276;2023-04-29T04:04:33;715.63;;;305.75;;
57231;SDS011;43488;46.934;8.276;2023-04-29T04:07:01;735.90;;;312.65;;
57231;SDS011;43488;46.934;8.276;2023-04-29T04:09:29;729.83;;;291.65;;
57231;SDS011;43488;46.934;8.276;2023-04-29T04:11:56;737.42;;;300.85;;
57231;SDS011;43488;46.934;8.276;2023-04-29T04:14:24;746.45;;;303.65;;
57231;SDS011;43488;46.934;8.276;2023-04-29T04:16:51;740.67;;;298.05;;
57231;SDS011;43488;46.934;8.276;2023-04-29T04:19:18;741.20;;;298.75;;
57231;SDS011;43488;46.934;8.276;2023-04-29T04:21:46;713.55;;;270.95;;
57231;SDS011;43488;46.934;8.276;2023-04-29T04:24:13;730.63;;;283.30;;
57231;SDS011;43488;46.934;8.276;2023-04-29T04:26:41;740.75;;;305.15;;
57231;SDS011;43488;46.934;8.276;2023-04-29T04:29:08;747.67;;;304.65;;
57231;SDS011;43488;46.934;8.276;2023-04-29T04:31:36;737.65;;;299.92;;
57231;SDS011;43488;46.934;8.276;2023-04-29T04:34:03;732.45;;;296.48;;
57231;SDS011;43488;46.934;8.276;2023-04-29T04:36:30;731.10;;;297.58;;
57231;SDS011;43488;46.934;8.276;2023-04-29T04:38:58;744.30;;;308.58;;
57231;SDS011;43488;46.934;8.276;2023-04-29T04:41:25;738.08;;;303.95;;
57231;SDS011;43488;46.934;8.276;2023-04-29T04:43:52;741.65;;;306.48;;
57231;SDS011;43488;46.934;8.276;2023-04-29T04:46:20;738.20;;;306.60;;
57231;SDS011;43488;46.934;8.276;2023-04-29T04:48:47;727.70;;;287.20;;
57231;SDS011;43488;46.934;8.276;2023-04-29T04:51:15;738.72;;;305.60;;
57231;SDS011;43488;46.934;8.276;2023-04-29T04:53:42;728.47;;;292.70;;
57231;SDS011;43488;46.934;8.276;2023-04-29T04:56:10;739.13;;;311.23;;
57231;SDS011;43488;46.934;8.276;2023-04-29T04:58:37;733.95;;;297.63;;
57231;SDS011;43488;46.934;8.276;2023-04-29T05:01:04;725.03;;;295.85;;
57231;SDS011;43488;46.934;8.276;2023-04-29T05:03:33;734.85;;;302.17;;
57231;SDS011;43488;46.934;8.276;2023-04-29T05:06:01;737.38;;;309.00;;
57231;SDS011;43488;46.934;8.276;2023-04-29T05:08:28;732.50;;;296.65;;
57231;SDS011;43488;46.934;8.276;2023-04-29T05:10:55;734.80;;;303.98;;
57231;SDS011;43488;46.934;8.276;2023-04-29T05:13:23;725.95;;;287.65;;
57231;SDS011;43488;46.934;8.276;2023-04-29T05:15:51;743.03;;;311.33;;
57231;SDS011;43488;46.934;8.276;2023-04-29T05:18:19;742.20;;;303.27;;
57231;SDS011;43488;46.934;8.276;2023-04-29T05:20:47;741.65;;;309.42;;
57231;SDS011;43488;46.934;8.276;2023-04-29T05:23:14;739.35;;;302.35;;
57231;SDS011;43488;46.934;8.276;2023-04-29T05:25:42;745.53;;;315.85;;
57231;SDS011;43488;46.934;8.276;2023-04-29T05:28:10;723.78;;;280.95;;
57231;SDS011;43488;46.934;8.276;2023-04-29T05:30:37;732.22;;;294.33;;
57231;SDS011;43488;46.934;8.276;2023-04-29T05:33:04;741.47;;;303.65;;
57231;SDS011;43488;46.934;8.276;2023-04-29T05:35:32;745.47;;;314.17;;
57231;SDS011;43488;46.934;8.276;2023-04-29T05:37:59;721.58;;;277.90;;
57231;SDS011;43488;46.934;8.276;2023-04-29T05:40:26;730.65;;;294.40;;
57231;SDS011;43488;46.934;8.276;2023-04-29T05:42:55;737.42;;;301.02;;
57231;SDS011;43488;46.934;8.276;2023-04-29T05:45:23;734.35;;;300.08;;
57231;SDS011;43488;46.934;8.276;2023-04-29T05:47:51;724.55;;;282.30;;
57231;SDS011;43488;46.934;8.276;2023-04-29T05:50:18;734.83;;;296.15;;
57231;SDS011;43488;46.934;8.276;2023-04-29T05:52:45;732.33;;;289.17;;
57231;SDS011;43488;46.934;8.276;2023-04-29T05:55:12;741.33;;;306.38;;
57231;SDS011;43488;46.934;8.276;2023-04-29T05:57:39;742.70;;;302.65;;
57231;SDS011;43488;46.934;8.276;2023-04-29T06:00:07;740.60;;;304.15;;
57231;SDS011;43488;46.934;8.276;2023-04-29T06:02:35;716.17;;;272.88;;
57231;SDS011;43488;46.934;8.276;2023-04-29T06:05:03;727.78;;;288.10;;
57231;SDS011;43488;46.934;8.276;2023-04-29T06:07:31;740.60;;;295.48;;
57231;SDS011;43488;46.934;8.276;2023-04-29T06:09:58;737.33;;;299.05;;
57231;SDS011;43488;46.934;8.276;2023-04-29T06:12:26;741.40;;;295.50;;
57231;SDS011;43488;46.934;8.276;2023-04-29T06:14:54;738.28;;;297.20;;
57231;SDS011;43488;46.934;8.276;2023-04-29T06:17:21;741.63;;;297.75;;
57231;SDS011;43488;46.934;8.276;2023-04-29T06:19:49;738.17;;;294.75;;
57231;SDS011;43488;46.934;8.276;2023-04-29T06:22:17;730.47;;;286.55;;
57231;SDS011;43488;46.934;8.276;2023-04-29T06:24:45;733.08;;;290.33;;
57231;SDS011;43488;46.934;8.276;2023-04-29T06:27:12;747.35;;;305.30;;
57231;SDS011;43488;46.934;8.276;2023-04-29T06:29:40;736.22;;;290.77;;
57231;SDS011;43488;46.934;8.276;2023-04-29T06:32:08;745.67;;;301.52;;
57231;SDS011;43488;46.934;8.276;2023-04-29T06:34:35;738.40;;;297.73;;
57231;SDS011;43488;46.934;8.276;2023-04-29T06:37:04;746.03;;;296.75;;
57231;SDS011;43488;46.934;8.276;2023-04-29T06:39:32;743.10;;;294.63;;
57231;SDS011;43488;46.934;8.276;2023-04-29T06:42:00;747.28;;;304.23;;
57231;SDS011;43488;46.934;8.276;2023-04-29T06:44:27;747.78;;;304.10;;
57231;SDS011;43488;46.934;8.276;2023-04-29T06:46:55;743.10;;;296.25;;
57231;SDS011;43488;46.934;8.276;2023-04-29T06:49:22;742.60;;;295.05;;
57231;SDS011;43488;46.934;8.276;2023-04-29T06:51:50;740.85;;;297.30;;
57231;SDS011;43488;46.934;8.276;2023-04-29T06:54:18;741.92;;;298.67;;
57231;SDS011;43488;46.934;8.276;2023-04-29T06:56:46;727.80;;;281.00;;
57231;SDS011;43488;46.934;8.276;2023-04-29T06:59:14;744.45;;;300.20;;
57231;SDS011;43488;46.934;8.276;2023-04-29T07:01:44;735.67;;;294.00;;
57231;SDS011;43488;46.934;8.276;2023-04-29T07:04:12;743.10;;;302.13;;
57231;SDS011;43488;46.934;8.276;2023-04-29T07:06:39;744.13;;;301.75;;
57231;SDS011;43488;46.934;8.276;2023-04-29T07:09:06;729.00;;;289.80;;
57231;SDS011;43488;46.934;8.276;2023-04-29T07:11:34;738.85;;;298.70;;
57231;SDS011;43488;46.934;8.276;2023-04-29T07:14:02;738.33;;;296.83;;
57231;SDS011;43488;46.934;8.276;2023-04-29T07:16:30;742.40;;;298.42;;
57231;SDS011;43488;46.934;8.276;2023-04-29T07:18:58;729.60;;;287.15;;
57231;SDS011;43488;46.934;8.276;2023-04-29T07:21:26;744.70;;;307.10;;
57231;SDS011;43488;46.934;8.276;2023-04-29T07:23:53;742.05;;;309.27;;
57231;SDS011;43488;46.934;8.276;2023-04-29T07:26:21;748.35;;;307.23;;
57231;SDS011;43488;46.934;8.276;2023-04-29T07:28:48;727.47;;;287.85;;
57231;SDS011;43488;46.934;8.276;2023-04-29T07:31:16;742.55;;;297.10;;
57231;SDS011;43488;46.934;8.276;2023-04-29T07:33:44;745.72;;;302.48;;
57231;SDS011;43488;46.934;8.276;2023-04-29T07:36:15;746.90;;;299.13;;
57231;SDS011;43488;46.934;8.276;2023-04-29T07:38:43;733.05;;;292.38;;
57231;SDS011;43488;46.934;8.276;2023-04-29T07:41:11;749.63;;;310.48;;
57231;SDS011;43488;46.934;8.276;2023-04-29T07:43:40;744.20;;;302.45;;
57231;SDS011;43488;46.934;8.276;2023-04-29T07:46:08;751.90;;;311.58;;
57231;SDS011;43488;46.934;8.276;2023-04-29T07:48:35;743.55;;;302.27;;
57231;SDS011;43488;46.934;8.276;2023-04-29T07:51:05;742.05;;;300.15;;
57231;SDS011;43488;46.934;8.276;2023-04-29T07:53:32;747.13;;;309.65;;
57231;SDS011;43488;46.934;8.276;2023-04-29T07:56:03;725.42;;;281.35;;
57231;SDS011;43488;46.934;8.276;2023-04-29T07:58:33;734.20;;;311.60;;
57231;SDS011;43488;46.934;8.276;2023-04-29T08:01:05;734.95;;;314.27;;
57231;SDS011;43488;46.934;8.276;2023-04-29T08:03:37;749.38;;;325.98;;
57231;SDS011;43488;46.934;8.276;2023-04-29T08:06:05;750.08;;;316.15;;
57231;SDS011;43488;46.934;8.276;2023-04-29T08:08:33;739.45;;;296.45;;
57231;SDS011;43488;46.934;8.276;2023-04-29T08:11:00;749.10;;;309.48;;
57231;SDS011;43488;46.934;8.276;2023-04-29T08:13:29;753.40;;;314.30;;
57231;SDS011;43488;46.934;8.276;2023-04-29T08:15:57;747.53;;;304.80;;
57231;SDS011;43488;46.934;8.276;2023-04-29T08:18:25;760.15;;;317.58;;
57231;SDS011;43488;46.934;8.276;2023-04-29T08:20:54;742.83;;;298.10;;
57231;SDS011;43488;46.934;8.276;2023-04-29T08:23:21;750.70;;;313.60;;
57231;SDS011;43488;46.934;8.276;2023-04-29T08:25:49;723.78;;;279.05;;
57231;SDS011;43488;46.934;8.276;2023-04-29T08:28:17;744.97;;;303.70;;
57231;SDS011;43488;46.934;8.276;2023-04-29T08:30:45;743.13;;;296.60;;
57231;SDS011;43488;46.934;8.276;2023-04-29T08:33:12;751.08;;;315.85;;
57231;SDS011;43488;46.934;8.276;2023-04-29T08:35:40;732.13;;;287.20;;
57231;SDS011;43488;46.934;8.276;2023-04-29T08:38:08;742.60;;;324.58;;
57231;SDS011;43488;46.934;8.276;2023-04-29T08:40:36;745.83;;;314.33;;
57231;SDS011;43488;46.934;8.276;2023-04-29T08:43:09;769.55;;;323.88;;
57231;SDS011;43488;46.934;8.276;2023-04-29T08:45:38;746.50;;;312.77;;
57231;SDS011;43488;46.934;8.276;2023-04-29T08:48:06;725.90;;;307.00;;
57231;SDS011;43488;46.934;8.276;2023-04-29T08:50:38;678.20;;;289.70;;
57231;SDS011;43488;46.934;8.276;2023-04-29T08:53:11;700.20;;;318.25;;
57231;SDS011;43488;46.934;8.276;2023-04-29T08:55:46;686.42;;;304.08;;
57231;SDS011;43488;46.934;8.276;2023-04-29T08:58:14;698.97;;;287.25;;
57231;SDS011;43488;46.934;8.276;2023-04-29T09:00:42;723.90;;;324.70;;
57231;SDS011;43488;46.934;8.276;2023-04-29T09:03:13;719.58;;;323.80;;
57231;SDS011;43488;46.934;8.276;2023-04-29T09:05:58;750.72;;;308.90;;
57231;SDS011;43488;46.934;8.276;2023-04-29T09:08:27;726.22;;;267.42;;
57231;SDS011;43488;46.934;8.276;2023-04-29T09:10:55;736.42;;;315.50;;
57231;SDS011;43488;46.934;8.276;2023-04-29T09:13:26;751.78;;;315.25;;
57231;SDS011;43488;46.934;8.276;2023-04-29T09:15:56;746.38;;;299.95;;
57231;SDS011;43488;46.934;8.276;2023-04-29T09:18:40;742.00;;;312.73;;
57231;SDS011;43488;46.934;8.276;2023-04-29T09:21:23;737.08;;;318.15;;
57231;SDS011;43488;46.934;8.276;2023-04-29T09:23:55;674.17;;;290.98;;
57231;SDS011;43488;46.934;8.276;2023-04-29T09:26:26;726.60;;;312.48;;
57231;SDS011;43488;46.934;8.276;2023-04-29T09:31:38;708.97;;;315.08;;
57231;SDS011;43488;46.934;8.276;2023-04-29T09:34:07;711.25;;;302.88;;
57231;SDS011;43488;46.934;8.276;2023-04-29T09:36:36;732.70;;;312.60;;
57231;SDS011;43488;46.934;8.276;2023-04-29T09:39:16;747.78;;;313.17;;
57231;SDS011;43488;46.934;8.276;2023-04-29T09:44:25;743.33;;;326.23;;
57231;SDS011;43488;46.934;8.276;2023-04-29T09:47:05;732.05;;;315.08;;
57231;SDS011;43488;46.934;8.276;2023-04-29T09:49:35;721.10;;;302.13;;
57231;SDS011;43488;46.934;8.276;2023-04-29T09:57:06;726.50;;;301.08;;
57231;SDS011;43488;46.934;8.276;2023-04-29T09:59:36;707.72;;;309.73;;
57231;SDS011;43488;46.934;8.276;2023-04-29T10:02:15;718.80;;;297.70;;
57231;SDS011;43488;46.934;8.276;2023-04-29T10:04:44;757.80;;;331.35;;
57231;SDS011;43488;46.934;8.276;2023-04-29T10:07:19;743.90;;;310.13;;
57231;SDS011;43488;46.934;8.276;2023-04-29T10:09:47;740.38;;;298.55;;
57231;SDS011;43488;46.934;8.276;2023-04-29T10:12:15;754.15;;;326.98;;
57231;SDS011;43488;46.934;8.276;2023-04-29T10:14:54;732.85;;;307.92;;
57231;SDS011;43488;46.934;8.276;2023-04-29T10:17:45;724.28;;;305.35;;
57231;SDS011;43488;46.934;8.276;2023-04-29T10:20:24;715.50;;;298.17;;
57231;SDS011;43488;46.934;8.276;2023-04-29T10:22:52;716.45;;;315.48;;
57231;SDS011;43488;46.934;8.276;2023-04-29T10:25:24;702.47;;;322.02;;
57231;SDS011;43488;46.934;8.276;2023-04-29T10:30:21;664.00;;;298.00;;
57231;SDS011;43488;46.934;8.276;2023-04-29T10:32:50;664.65;;;299.00;;
57231;SDS011;43488;46.934;8.276;2023-04-29T10:35:18;698.95;;;305.27;;
57231;SDS011;43488;46.934;8.276;2023-04-29T10:37:49;654.60;;;290.58;;
57231;SDS011;43488;46.934;8.276;2023-04-29T10:40:22;649.80;;;287.20;;
57231;SDS011;43488;46.934;8.276;2023-04-29T10:42:57;709.55;;;312.08;;
57231;SDS011;43488;46.934;8.276;2023-04-29T10:50:33;756.85;;;314.88;;
57231;SDS011;43488;46.934;8.276;2023-04-29T10:53:08;764.45;;;326.77;;
57231;SDS011;43488;46.934;8.276;2023-04-29T10:55:36;752.92;;;318.17;;
57231;SDS011;43488;46.934;8.276;2023-04-29T10:58:53;760.80;;;321.92;;
57231;SDS011;43488;46.934;8.276;2023-04-29T11:01:09;760.70;;;321.15;;
57231;SDS011;43488;46.934;8.276;2023-04-29T11:03:48;769.25;;;331.88;;
57231;SDS011;43488;46.934;8.276;2023-04-29T11:06:25;745.50;;;329.63;;
57231;SDS011;43488;46.934;8.276;2023-04-29T11:09:09;737.45;;;315.17;;
57231;SDS011;43488;46.934;8.276;2023-04-29T11:11:43;713.42;;;310.52;;
57231;SDS011;43488;46.934;8.276;2023-04-29T11:14:18;726.67;;;308.92;;
57231;SDS011;43488;46.934;8.276;2023-04-29T11:16:53;744.97;;;330.02;;
57231;SDS011;43488;46.934;8.276;2023-04-29T11:19:25;715.92;;;311.05;;
57231;SDS011;43488;46.934;8.276;2023-04-29T11:22:08;711.90;;;304.02;;
57231;SDS011;43488;46.934;8.276;2023-04-29T11:24:54;726.17;;;321.10;;
57231;SDS011;43488;46.934;8.276;2023-04-29T11:27:35;714.57;;;309.40;;
57231;SDS011;43488;46.934;8.276;2023-04-29T11:30:06;729.50;;;309.85;;
57231;SDS011;43488;46.934;8.276;2023-04-29T11:32:35;739.50;;;324.60;;
57231;SDS011;43488;46.934;8.276;2023-04-29T11:45:13;755.85;;;323.92;;
57231;SDS011;43488;46.934;8.276;2023-04-29T11:47:44;754.63;;;324.70;;
57231;SDS011;43488;46.934;8.276;2023-04-29T11:55:12;746.90;;;300.95;;
57231;SDS011;43488;46.934;8.276;2023-04-29T11:57:40;762.08;;;334.52;;
57231;SDS011;43488;46.934;8.276;2023-04-29T12:00:11;758.92;;;322.00;;
57231;SDS011;43488;46.934;8.276;2023-04-29T12:15:09;761.33;;;313.45;;
57231;SDS011;43488;46.934;8.276;2023-04-29T12:20:05;740.17;;;286.77;;
57231;SDS011;43488;46.934;8.276;2023-04-29T12:39:54;736.95;;;308.92;;
57231;SDS011;43488;46.934;8.276;2023-04-29T12:42:23;743.33;;;311.33;;
57231;SDS011;43488;46.934;8.276;2023-04-29T12:44:56;729.60;;;305.02;;
57231;SDS011;43488;46.934;8.276;2023-04-29T12:47:24;745.70;;;329.33;;
57231;SDS011;43488;46.934;8.276;2023-04-29T12:52:27;745.65;;;322.10;;
57231;SDS011;43488;46.934;8.276;2023-04-29T12:54:55;740.22;;;322.42;;
57231;SDS011;43488;46.934;8.276;2023-04-29T12:57:23;720.38;;;301.60;;
57231;SDS011;43488;46.934;8.276;2023-04-29T12:59:51;742.30;;;317.33;;
57231;SDS011;43488;46.934;8.276;2023-04-29T13:02:19;738.90;;;311.45;;
57231;SDS011;43488;46.934;8.276;2023-04-29T13:04:46;738.30;;;308.52;;
57231;SDS011;43488;46.934;8.276;2023-04-29T13:07:13;739.08;;;314.70;;
57231;SDS011;43488;46.934;8.276;2023-04-29T13:17:04;748.50;;;322.58;;
57231;SDS011;43488;46.934;8.276;2023-04-29T13:19:32;750.08;;;305.15;;
57231;SDS011;43488;46.934;8.276;2023-04-29T13:56:22;775.55;;;310.98;;
57231;SDS011;43488;46.934;8.276;2023-04-29T13:58:51;794.78;;;329.13;;
57231;SDS011;43488;46.934;8.276;2023-04-29T14:01:19;799.33;;;329.75;;
57231;SDS011;43488;46.934;8.276;2023-04-29T14:03:48;791.45;;;317.50;;
57231;SDS011;43488;46.934;8.276;2023-04-29T14:06:15;790.45;;;326.25;;
57231;SDS011;43488;46.934;8.276;2023-04-29T14:08:43;780.97;;;310.25;;
57231;SDS011;43488;46.934;8.276;2023-04-29T14:11:10;784.70;;;320.45;;
57231;SDS011;43488;46.934;8.276;2023-04-29T14:13:40;785.27;;;317.73;;
57231;SDS011;43488;46.934;8.276;2023-04-29T14:16:07;784.70;;;324.25;;
57231;SDS011;43488;46.934;8.276;2023-04-29T14:18:35;790.95;;;322.92;;
57231;SDS011;43488;46.934;8.276;2023-04-29T14:21:02;782.97;;;315.52;;
57231;SDS011;43488;46.934;8.276;2023-04-29T14:23:30;788.08;;;319.55;;
57231;SDS011;43488;46.934;8.276;2023-04-29T14:25:57;793.00;;;328.95;;
57231;SDS011;43488;46.934;8.276;2023-04-29T14:28:25;801.20;;;331.80;;
57231;SDS011;43488;46.934;8.276;2023-04-29T14:30:52;787.05;;;315.42;;
57231;SDS011;43488;46.934;8.276;2023-04-29T14:33:20;777.20;;;325.42;;
57231;SDS011;43488;46.934;8.276;2023-04-29T14:35:47;782.13;;;329.73;;
57231;SDS011;43488;46.934;8.276;2023-04-29T14:38:14;795.28;;;319.70;;
57231;SDS011;43488;46.934;8.276;2023-04-29T14:40:41;806.38;;;311.08;;
57231;SDS011;43488;46.934;8.276;2023-04-29T14:43:09;802.15;;;305.65;;
57231;SDS011;43488;46.934;8.276;2023-04-29T14:45:36;808.25;;;314.20;;
57231;SDS011;43488;46.934;8.276;2023-04-29T14:48:04;768.78;;;317.08;;
57231;SDS011;43488;46.934;8.276;2023-04-29T14:50:31;806.55;;;323.05;;
57231;SDS011;43488;46.934;8.276;2023-04-29T14:52:59;793.90;;;298.60;;
57231;SDS011;43488;46.934;8.276;2023-04-29T14:55:26;800.47;;;313.23;;
57231;SDS011;43488;46.934;8.276;2023-04-29T14:57:54;811.72;;;321.45;;
57231;SDS011;43488;46.934;8.276;2023-04-29T15:00:22;804.20;;;318.30;;
57231;SDS011;43488;46.934;8.276;2023-04-29T15:02:49;802.30;;;313.92;;
57231;SDS011;43488;46.934;8.276;2023-04-29T15:05:18;798.58;;;312.92;;
57231;SDS011;43488;46.934;8.276;2023-04-29T15:07:46;796.00;;;304.10;;
57231;SDS011;43488;46.934;8.276;2023-04-29T15:10:14;783.78;;;309.77;;
57231;SDS011;43488;46.934;8.276;2023-04-29T15:12:41;752.20;;;311.63;;
57231;SDS011;43488;46.934;8.276;2023-04-29T15:15:09;758.60;;;308.90;;
57231;SDS011;43488;46.934;8.276;2023-04-29T15:17:36;765.88;;;289.88;;
57231;SDS011;43488;46.934;8.276;2023-04-29T15:20:05;780.80;;;316.90;;
57231;SDS011;43488;46.934;8.276;2023-04-29T15:22:33;779.40;;;312.88;;
57231;SDS011;43488;46.934;8.276;2023-04-29T15:25:01;784.58;;;327.48;;
57231;SDS011;43488;46.934;8.276;2023-04-29T15:27:28;771.33;;;316.35;;
57231;SDS011;43488;46.934;8.276;2023-04-29T15:29:55;715.80;;;303.08;;
57231;SDS011;43488;46.934;8.276;2023-04-29T15:32:23;695.45;;;281.20;;
57231;SDS011;43488;46.934;8.276;2023-04-29T15:34:57;722.03;;;314.45;;
57231;SDS011;43488;46.934;8.276;2023-04-29T15:37:26;690.40;;;294.83;;
57231;SDS011;43488;46.934;8.276;2023-04-29T15:39:54;757.88;;;309.35;;
57231;SDS011;43488;46.934;8.276;2023-04-29T15:42:25;771.92;;;298.00;;
57231;SDS011;43488;46.934;8.276;2023-04-29T15:44:53;768.40;;;326.02;;
57231;SDS011;43488;46.934;8.276;2023-04-29T15:47:20;763.50;;;300.13;;
57231;SDS011;43488;46.934;8.276;2023-04-29T15:49:48;741.60;;;267.17;;
57231;SDS011;43488;46.934;8.276;2023-04-29T15:52:17;743.50;;;273.85;;
57231;SDS011;43488;46.934;8.276;2023-04-29T15:54:44;739.85;;;273.77;;
57231;SDS011;43488;46.934;8.276;2023-04-29T15:57:12;766.50;;;314.00;;
57231;SDS011;43488;46.934;8.276;2023-04-29T15:59:40;744.97;;;301.90;;
57231;SDS011;43488;46.934;8.276;2023-04-29T16:02:08;741.78;;;300.75;;
57231;SDS011;43488;46.934;8.276;2023-04-29T16:04:37;758.75;;;304.33;;
57231;SDS011;43488;46.934;8.276;2023-04-29T16:07:04;788.47;;;317.65;;
57231;SDS011;43488;46.934;8.276;2023-04-29T16:09:32;790.92;;;325.23;;
57231;SDS011;43488;46.934;8.276;2023-04-29T16:12:00;776.22;;;300.98;;
57231;SDS011;43488;46.934;8.276;2023-04-29T16:14:28;768.08;;;296.35;;